createdAt,value
2018-05-26T00:01:26.157Z,91.20
2018-05-26T00:03:53.765Z,91.50
2018-05-26T00:06:21.365Z,91.30
2018-05-26T00:08:48.979Z,91.40
2018-05-26T00:11:16.589Z,91.30
2018-05-26T00:13:44.207Z,91.30
2018-05-26T00:16:11.825Z,91.20
2018-05-26T00:18:39.454Z,91.60
2018-05-26T00:21:07.817Z,91.10
2018-05-26T00:23:36.241Z,91.30
2018-05-26T00:26:03.831Z,91.10
2018-05-26T00:28:31.410Z,91.10
2018-05-26T00:30:59.017Z,91.10
2018-05-26T00:33:26.633Z,91.20
2018-05-26T00:35:54.242Z,91.20
2018-05-26T00:38:21.913Z,91.20
2018-05-26T00:40:49.549Z,91.50
2018-05-26T00:43:17.163Z,91.40
2018-05-26T00:45:44.771Z,91.50
2018-05-26T00:48:12.393Z,91.60
2018-05-26T00:50:40.789Z,91.70
2018-05-26T00:53:09.137Z,91.90
2018-05-26T00:55:36.795Z,91.90
2018-05-26T00:58:04.371Z,92.00
2018-05-26T01:00:31.999Z,92.00
2018-05-26T01:02:59.627Z,92.00
2018-05-26T01:05:27.223Z,92.10
2018-05-26T01:07:54.851Z,92.40
2018-05-26T01:10:22.438Z,92.50
2018-05-26T01:12:50.067Z,92.70
2018-05-26T01:15:17.635Z,92.80
2018-05-26T01:17:45.312Z,93.00
2018-05-26T01:20:12.954Z,92.90
2018-05-26T01:22:40.519Z,92.90
2018-05-26T01:25:08.134Z,92.90
2018-05-26T01:27:35.765Z,92.90
2018-05-26T01:30:03.411Z,92.90
2018-05-26T01:32:31.001Z,93.00
2018-05-26T01:34:58.617Z,92.90
2018-05-26T01:37:26.246Z,92.70
2018-05-26T01:39:54.575Z,92.80
2018-05-26T01:42:22.194Z,92.70
2018-05-26T01:44:50.535Z,92.90
2018-05-26T01:47:41.575Z,92.90
2018-05-26T01:50:09.203Z,93.20
2018-05-26T01:52:36.791Z,92.90
2018-05-26T01:55:04.420Z,93.00
2018-05-26T01:57:32.051Z,92.70
2018-05-26T01:59:59.661Z,92.90
2018-05-26T02:02:27.289Z,93.10
2018-05-26T02:04:54.909Z,93.30
2018-05-26T02:07:23.295Z,93.10
2018-05-26T02:09:51.673Z,93.20
2018-05-26T02:12:20.081Z,93.10
2018-05-26T02:14:47.671Z,93.00
2018-05-26T02:17:15.285Z,93.30
2018-05-26T02:19:42.923Z,93.50
2018-05-26T02:22:12.041Z,93.40
2018-05-26T02:24:40.430Z,93.50
2018-05-26T02:27:07.997Z,93.40
2018-05-26T02:29:35.599Z,93.60
2018-05-26T02:32:03.221Z,93.50
2018-05-26T02:34:30.767Z,93.60
2018-05-26T02:36:58.383Z,93.30
2018-05-26T02:39:26.017Z,93.30
2018-05-26T02:41:53.673Z,93.40
2018-05-26T02:44:21.245Z,93.20
2018-05-26T02:46:48.867Z,93.30
2018-05-26T02:49:16.511Z,93.60
2018-05-26T02:51:44.124Z,93.70
2018-05-26T02:54:11.759Z,93.60
2018-05-26T02:56:39.335Z,93.70
2018-05-26T02:59:06.928Z,93.70
2018-05-26T03:01:34.550Z,93.70
2018-05-26T03:04:01.679Z,93.70
2018-05-26T03:06:35.737Z,93.80
2018-05-26T03:09:08.885Z,93.70
2018-05-26T03:11:42.145Z,93.60
2018-05-26T03:14:15.429Z,93.70
2018-05-26T03:16:51.567Z,93.60
2018-05-26T03:19:19.335Z,93.60
2018-05-26T03:21:46.953Z,93.60
2018-05-26T03:24:15.255Z,93.60
2018-05-26T03:26:42.893Z,93.60
2018-05-26T03:29:10.509Z,93.50
2018-05-26T03:31:38.116Z,93.50
2018-05-26T03:34:06.498Z,93.60
2018-05-26T03:36:34.871Z,93.50
2018-05-26T03:39:03.215Z,93.20
2018-05-26T03:41:30.769Z,93.20
2018-05-26T03:43:58.352Z,93.30
2018-05-26T03:46:25.973Z,93.20
2018-05-26T03:48:53.547Z,93.40
2018-05-26T03:51:21.145Z,92.90
2018-05-26T03:53:49.495Z,92.50
2018-05-26T03:56:29.595Z,92.20
2018-05-26T03:59:09.021Z,92.20
2018-05-26T04:01:36.600Z,91.90
2018-05-26T04:04:04.143Z,91.80
2018-05-26T04:06:32.559Z,91.50
2018-05-26T04:09:00.215Z,91.50
2018-05-26T04:11:27.841Z,91.00
2018-05-26T04:13:56.255Z,91.10
2018-05-26T04:16:23.867Z,90.80
2018-05-26T04:18:52.252Z,90.90
2018-05-26T04:21:20.621Z,90.00
2018-05-26T04:23:48.226Z,90.30
2018-05-26T04:26:15.798Z,90.10
2018-05-26T04:28:43.440Z,90.00
2018-05-26T04:31:11.017Z,90.20
2018-05-26T04:33:38.619Z,90.30
2018-05-26T04:36:06.229Z,90.30
2018-05-26T04:38:33.843Z,90.10
2018-05-26T04:41:01.431Z,89.90
2018-05-26T04:43:29.756Z,87.20
2018-05-26T04:45:57.403Z,87.20
2018-05-26T04:48:25.019Z,85.10
2018-05-26T04:50:53.400Z,83.60
2018-05-26T04:53:21.786Z,81.60
2018-05-26T04:55:50.149Z,79.60
2018-05-26T04:58:18.538Z,78.90
2018-05-26T05:00:46.215Z,78.80
2018-05-26T05:03:13.862Z,74.50
2018-05-26T05:05:42.361Z,67.30
2018-05-26T05:08:10.719Z,62.00
2018-05-26T05:10:39.092Z,61.60
2018-05-26T05:13:07.487Z,57.00
2018-05-26T05:15:35.869Z,55.50
2018-05-26T05:18:03.477Z,55.50
2018-05-26T05:20:31.108Z,55.50
2018-05-26T05:22:58.725Z,55.40
2018-05-26T05:25:27.139Z,53.60
2018-05-26T05:27:54.749Z,53.30
2018-05-26T05:30:22.323Z,51.30
2018-05-26T05:32:49.923Z,50.00
2018-05-26T05:35:17.575Z,50.70
2018-05-26T05:37:45.177Z,46.60
2018-05-26T05:40:12.779Z,45.60
2018-05-26T05:42:41.492Z,43.70
2018-05-26T05:45:09.841Z,41.70
2018-05-26T05:47:38.261Z,41.00
2018-05-26T05:50:05.881Z,40.90
2018-05-26T05:52:34.283Z,39.80
2018-05-26T05:55:01.878Z,39.80
2018-05-26T05:57:29.490Z,38.50
2018-05-26T05:59:57.110Z,38.50
2018-05-26T06:02:24.764Z,37.80
2018-05-26T06:04:52.376Z,37.00
2018-05-26T06:07:20.736Z,36.50
2018-05-26T06:09:48.348Z,36.50
2018-05-26T06:12:15.930Z,35.70
2018-05-26T06:14:47.510Z,34.20
2018-05-26T06:17:15.126Z,34.30
2018-05-26T06:19:42.740Z,34.90
2018-05-26T06:22:11.140Z,34.40
2018-05-26T06:24:38.768Z,34.30
2018-05-26T06:27:06.309Z,33.80
2018-05-26T06:29:33.899Z,33.70
2018-05-26T06:32:02.220Z,32.70
2018-05-26T06:34:29.832Z,32.70
2018-05-26T06:36:57.397Z,35.10
2018-05-26T06:39:24.994Z,37.20
2018-05-26T06:41:52.616Z,36.90
2018-05-26T06:44:20.308Z,36.80
2018-05-26T06:46:53.777Z,36.70
2018-05-26T06:49:21.408Z,37.80
2018-05-26T06:51:49.004Z,40.10
2018-05-26T06:54:17.364Z,44.70
2018-05-26T06:56:45.920Z,46.00
2018-05-26T06:59:13.578Z,46.10
2018-05-26T07:01:41.196Z,48.60
2018-05-26T07:04:09.568Z,48.60
2018-05-26T07:06:37.954Z,51.10
2018-05-26T07:09:06.319Z,52.40
2018-05-26T07:11:33.929Z,52.40
2018-05-26T07:14:01.526Z,51.20
2018-05-26T07:16:29.130Z,52.60
2018-05-26T07:18:56.740Z,53.00
2018-05-26T07:21:24.354Z,53.70
2018-05-26T07:23:51.966Z,53.50
2018-05-26T07:26:19.564Z,56.30
2018-05-26T07:28:47.957Z,55.40
2018-05-26T07:31:15.578Z,55.40
2018-05-26T07:33:43.231Z,54.50
2018-05-26T07:36:10.843Z,55.80
2018-05-26T07:38:38.434Z,56.50
2018-05-26T07:41:06.042Z,55.60
2018-05-26T07:43:34.405Z,54.10
2018-05-26T07:46:05.848Z,54.20
2018-05-26T07:48:33.660Z,54.40
2018-05-26T07:51:01.238Z,53.80
2018-05-26T07:53:28.830Z,54.20
2018-05-26T07:55:56.564Z,54.30
2018-05-26T07:58:24.230Z,54.10
2018-05-26T08:00:51.904Z,52.20
2018-05-26T08:03:19.520Z,55.50
2018-05-26T08:05:47.147Z,53.90
2018-05-26T08:08:14.762Z,53.60
2018-05-26T08:10:42.361Z,53.50
2018-05-26T08:13:09.991Z,53.50
2018-05-26T08:15:37.598Z,54.10
2018-05-26T08:18:05.235Z,53.30
2018-05-26T08:20:32.868Z,54.60
2018-05-26T08:23:00.502Z,54.40
2018-05-26T08:25:28.880Z,55.00
2018-05-26T08:27:56.826Z,55.00
2018-05-26T08:30:25.273Z,53.70
2018-05-26T08:32:53.999Z,51.40
2018-05-26T08:35:22.356Z,52.60
2018-05-26T08:37:50.063Z,52.60
2018-05-26T08:40:17.724Z,52.80
2018-05-26T08:42:46.166Z,52.80
2018-05-26T08:45:13.932Z,53.30
2018-05-26T08:47:41.565Z,51.00
2018-05-26T08:50:09.178Z,49.00
2018-05-26T08:52:37.546Z,50.00
2018-05-26T08:55:05.164Z,50.20
2018-05-26T08:57:32.781Z,52.20
2018-05-26T09:00:01.159Z,52.00
2018-05-26T09:02:39.324Z,51.00
2018-05-26T09:05:06.953Z,51.00
2018-05-26T09:07:48.145Z,50.90
2018-05-26T09:10:15.770Z,49.50
2018-05-26T09:12:44.132Z,50.70
2018-05-26T09:15:11.715Z,50.70
2018-05-26T09:17:40.061Z,53.70
2018-05-26T09:20:07.691Z,53.60
2018-05-26T09:22:41.029Z,51.50
2018-05-26T09:25:09.449Z,50.90
2018-05-26T09:27:37.019Z,50.90
2018-05-26T09:30:04.612Z,48.70
2018-05-26T09:32:32.217Z,48.70
2018-05-26T09:35:10.767Z,48.00
2018-05-26T09:37:38.399Z,48.10
2018-05-26T09:40:05.999Z,47.10
2018-05-26T09:42:33.603Z,50.00
2018-05-26T09:45:01.985Z,47.00
2018-05-26T09:47:30.363Z,48.30
2018-05-26T09:49:57.999Z,48.30
2018-05-26T09:52:25.594Z,48.00
2018-05-26T09:54:53.236Z,48.10
2018-05-26T09:57:21.591Z,48.80
2018-05-26T09:59:58.849Z,48.90
2018-05-26T10:02:26.489Z,47.90
2018-05-26T10:05:10.870Z,48.30
2018-05-26T10:07:38.492Z,48.30
2018-05-26T10:10:06.879Z,48.00
2018-05-26T10:12:35.243Z,48.50
2018-05-26T10:15:03.615Z,48.30
2018-05-26T10:17:31.249Z,48.30
2018-05-26T10:19:58.897Z,49.50
2018-05-26T10:22:26.501Z,48.00
2018-05-26T10:24:54.897Z,47.90
2018-05-26T10:27:22.486Z,47.90
2018-05-26T10:29:50.081Z,48.20
2018-05-26T10:32:17.734Z,50.10
2018-05-26T10:34:45.377Z,48.20
2018-05-26T10:37:12.967Z,49.30
2018-05-26T10:39:41.367Z,48.40
2018-05-26T10:42:09.775Z,47.30
2018-05-26T10:44:37.376Z,47.30
2018-05-26T10:47:04.977Z,47.40
2018-05-26T10:49:33.329Z,46.60
2018-05-26T10:52:03.720Z,47.70
2018-05-26T10:54:31.324Z,47.80
2018-05-26T10:56:58.960Z,46.80
2018-05-26T10:59:26.627Z,47.00
2018-05-26T11:01:54.711Z,46.40
2018-05-26T11:04:22.342Z,45.50
2018-05-26T11:06:49.967Z,46.30
2018-05-26T11:09:17.564Z,48.60
2018-05-26T11:11:45.140Z,45.90
2018-05-26T11:14:12.789Z,44.30
2018-05-26T11:16:40.376Z,45.40
2018-05-26T11:19:08.037Z,44.90
2018-05-26T11:21:35.643Z,44.80
2018-05-26T11:24:03.384Z,46.10
2018-05-26T11:26:30.891Z,47.80
2018-05-26T11:28:58.493Z,42.00
2018-05-26T11:31:26.109Z,41.20
2018-05-26T11:33:53.707Z,45.20
2018-05-26T11:36:23.327Z,40.80
2018-05-26T11:38:51.783Z,35.60
2018-05-26T11:41:19.396Z,35.50
2018-05-26T11:43:47.005Z,33.20
2018-05-26T11:46:14.622Z,33.30
2018-05-26T11:48:42.183Z,34.00
2018-05-26T11:51:09.792Z,33.00
2018-05-26T11:53:37.407Z,32.40
2018-05-26T11:56:05.043Z,30.00
2018-05-26T11:58:33.425Z,29.10
2018-05-26T12:01:01.821Z,28.00
2018-05-26T12:03:29.465Z,27.90
2018-05-26T12:05:57.817Z,27.80
2018-05-26T12:08:26.179Z,27.80
2018-05-26T12:10:53.859Z,27.80
2018-05-26T12:13:22.299Z,29.40
2018-05-26T12:15:49.910Z,29.40
2018-05-26T12:18:21.291Z,32.10
2018-05-26T12:21:08.615Z,32.00
2018-05-26T12:23:36.225Z,30.30
2018-05-26T12:26:03.879Z,27.80
2018-05-26T12:28:31.501Z,28.80
2018-05-26T12:30:59.132Z,26.90
2018-05-26T12:33:27.483Z,27.70
2018-05-26T12:35:56.614Z,27.80
2018-05-26T12:38:26.151Z,27.70
2018-05-26T12:40:53.775Z,27.70
2018-05-26T12:43:27.561Z,28.50
2018-05-26T12:46:02.889Z,27.70
2018-05-26T12:48:30.505Z,27.70
2018-05-26T12:51:05.111Z,27.10
2018-05-26T12:53:33.451Z,28.10
2018-05-26T12:56:01.077Z,28.10
2018-05-26T12:58:28.667Z,29.00
2018-05-26T13:00:56.209Z,27.30
2018-05-26T13:03:36.761Z,26.60
2018-05-26T13:06:04.343Z,27.20
2018-05-26T13:08:31.943Z,29.20
2018-05-26T13:11:00.361Z,28.10
2018-05-26T13:13:27.990Z,28.00
2018-05-26T13:15:56.369Z,27.10
2018-05-26T13:18:24.745Z,27.20
2018-05-26T13:20:53.137Z,28.30
2018-05-26T13:23:20.743Z,28.10
2018-05-26T13:25:48.359Z,28.00
2018-05-26T13:28:16.714Z,27.70
2018-05-26T13:30:44.315Z,27.60
2018-05-26T13:33:11.902Z,27.40
2018-05-26T13:35:39.517Z,28.40
2018-05-26T13:38:07.148Z,28.00
2018-05-26T13:40:34.752Z,29.80
2018-05-26T13:43:02.426Z,28.70
2018-05-26T13:45:29.995Z,28.80
2018-05-26T13:47:57.613Z,29.70
2018-05-26T13:50:26.022Z,31.20
2018-05-26T13:52:54.493Z,32.00
2018-05-26T13:55:22.042Z,32.00
2018-05-26T13:57:49.635Z,33.50
2018-05-26T14:00:17.257Z,34.50
2018-05-26T14:02:45.649Z,35.70
2018-05-26T14:05:13.277Z,35.60
2018-05-26T14:07:41.659Z,35.90
2018-05-26T14:10:10.077Z,35.90
2018-05-26T14:12:37.686Z,35.60
2018-05-26T14:15:09.068Z,36.40
2018-05-26T14:17:36.687Z,36.90
2018-05-26T14:20:04.267Z,37.70
2018-05-26T14:22:31.878Z,36.90
2018-05-26T14:24:59.474Z,36.80
2018-05-26T14:27:27.078Z,36.60
2018-05-26T14:29:55.397Z,38.40
2018-05-26T14:32:23.031Z,39.00
2018-05-26T14:34:50.601Z,38.70
2018-05-26T14:37:18.178Z,37.60
2018-05-26T14:39:45.799Z,37.40
2018-05-26T14:42:14.217Z,38.40
2018-05-26T14:44:41.853Z,38.40
2018-05-26T14:47:09.515Z,40.40
2018-05-26T14:49:37.141Z,37.80
2018-05-26T14:52:04.733Z,39.50
2018-05-26T14:54:32.348Z,38.00
2018-05-26T14:56:59.907Z,38.00
2018-05-26T14:59:27.528Z,38.10
2018-05-26T15:01:55.113Z,38.00
2018-05-26T15:04:22.776Z,37.10
2018-05-26T15:06:50.413Z,37.50
2018-05-26T15:09:18.057Z,36.40
2018-05-26T15:11:45.693Z,38.40
2018-05-26T15:14:13.415Z,36.30
2018-05-26T15:16:41.051Z,37.50
2018-05-26T15:19:08.680Z,35.90
2018-05-26T15:21:37.069Z,36.30
2018-05-26T15:24:04.696Z,36.30
2018-05-26T15:26:33.858Z,37.70
2018-05-26T15:29:01.487Z,37.60
2018-05-26T15:31:29.282Z,40.30
2018-05-26T15:33:56.886Z,36.90
2018-05-26T15:36:24.497Z,37.60
2018-05-26T15:38:52.121Z,38.20
2018-05-26T15:41:19.748Z,38.00
2018-05-26T15:43:47.355Z,38.10
2018-05-26T15:46:14.989Z,39.50
2018-05-26T15:48:42.619Z,38.60
2018-05-26T15:51:10.405Z,38.00
2018-05-26T15:53:37.999Z,38.80
2018-05-26T15:56:06.417Z,38.70
2018-05-26T15:58:34.032Z,38.60
2018-05-26T16:01:02.452Z,38.30
2018-05-26T16:03:30.057Z,38.20
2018-05-26T16:05:57.676Z,39.60
2018-05-26T16:08:25.284Z,40.00
2018-05-26T16:10:53.672Z,40.90
2018-05-26T16:13:22.737Z,39.60
2018-05-26T16:15:50.369Z,39.70
2018-05-26T16:18:17.941Z,40.80
2018-05-26T16:20:45.557Z,39.60
2018-05-26T16:23:13.960Z,40.70
2018-05-26T16:25:41.579Z,40.70
2018-05-26T16:28:09.210Z,41.50
2018-05-26T16:30:36.821Z,42.50
2018-05-26T16:33:05.245Z,41.00
2018-05-26T16:35:32.841Z,41.10
2018-05-26T16:38:00.376Z,41.20
2018-05-26T16:40:27.889Z,40.40
2018-05-26T16:42:56.199Z,40.60
2018-05-26T16:45:23.724Z,40.60
2018-05-26T16:47:51.995Z,40.50
2018-05-26T16:50:20.275Z,39.30
2018-05-26T16:52:48.535Z,40.90
2018-05-26T16:55:16.079Z,40.90
2018-05-26T16:57:43.589Z,40.70
2018-05-26T17:00:11.120Z,40.70
2018-05-26T17:02:40.306Z,41.80
2018-05-26T17:05:07.834Z,41.80
2018-05-26T17:07:35.334Z,41.50
2018-05-26T17:10:02.887Z,41.80
2018-05-26T17:12:30.433Z,41.30
2018-05-26T17:14:58.011Z,41.20
2018-05-26T17:17:26.360Z,41.30
2018-05-26T17:19:53.966Z,41.30
2018-05-26T17:22:21.568Z,41.30
2018-05-26T17:24:49.171Z,40.60
2018-05-26T17:27:16.775Z,41.30
2018-05-26T17:29:44.366Z,41.90
2018-05-26T17:32:12.016Z,41.40
2018-05-26T17:34:39.631Z,41.50
2018-05-26T17:37:07.253Z,41.30
2018-05-26T17:39:34.855Z,44.10
2018-05-26T17:42:02.482Z,44.60
2018-05-26T17:44:30.120Z,42.40
2018-05-26T17:46:57.779Z,42.60
2018-05-26T17:49:25.427Z,44.00
2018-05-26T17:51:53.034Z,45.00
2018-05-26T17:54:20.632Z,45.60
2018-05-26T17:56:48.210Z,46.30
2018-05-26T17:59:15.755Z,46.30
2018-05-26T18:01:43.376Z,46.90
2018-05-26T18:04:11.006Z,48.00
2018-05-26T18:06:38.608Z,49.00
2018-05-26T18:09:06.946Z,48.00
2018-05-26T18:11:34.564Z,47.90
2018-05-26T18:14:02.194Z,48.10
2018-05-26T18:16:29.840Z,49.00
2018-05-26T18:18:57.460Z,49.10
2018-05-26T18:21:25.058Z,49.60
2018-05-26T18:23:52.669Z,51.00
2018-05-26T18:26:21.010Z,51.60
2018-05-26T18:28:48.602Z,51.00
2018-05-26T18:31:16.206Z,50.60
2018-05-26T18:33:43.832Z,51.00
2018-05-26T18:36:12.191Z,51.30
2018-05-26T18:38:40.586Z,51.30
2018-05-26T18:41:08.222Z,51.30
2018-05-26T18:43:36.597Z,52.50
2018-05-26T18:46:04.201Z,51.90
2018-05-26T18:48:31.760Z,52.00
2018-05-26T18:50:59.372Z,52.60
2018-05-26T18:53:27.014Z,52.70
2018-05-26T18:55:54.630Z,52.70
2018-05-26T18:58:22.236Z,52.80
2018-05-26T19:00:49.864Z,53.10
2018-05-26T19:03:17.497Z,53.60
2018-05-26T19:05:45.877Z,55.70
2018-05-26T19:08:14.254Z,57.00
2018-05-26T19:10:42.042Z,56.90
2018-05-26T19:13:09.658Z,57.00
2018-05-26T19:15:37.303Z,57.50
2018-05-26T19:18:04.922Z,57.30
2018-05-26T19:20:32.493Z,57.30
2018-05-26T19:23:00.105Z,57.80
2018-05-26T19:25:27.718Z,58.20
2018-05-26T19:27:55.384Z,58.10
2018-05-26T19:30:22.993Z,58.40
2018-05-26T19:32:51.371Z,63.40
2018-05-26T19:35:18.963Z,63.50
2018-05-26T19:37:46.588Z,62.20
2018-05-26T19:40:14.214Z,64.00
2018-05-26T19:42:58.564Z,64.50
2018-05-26T19:45:34.573Z,63.80
2018-05-26T19:48:02.132Z,63.70
2018-05-26T19:50:30.541Z,62.00
2018-05-26T19:52:58.156Z,61.90
2018-05-26T19:55:25.796Z,63.30
2018-05-26T19:57:53.456Z,64.00
2018-05-26T20:00:21.068Z,64.30
2018-05-26T20:02:49.490Z,64.40
2018-05-26T20:05:17.094Z,64.40
2018-05-26T20:07:44.718Z,65.80
2018-05-26T20:10:12.342Z,66.30
2018-05-26T20:12:59.194Z,65.90
2018-05-26T20:15:26.796Z,64.90
2018-05-26T20:17:58.893Z,64.80
2018-05-26T20:20:27.254Z,65.00
2018-05-26T20:22:54.857Z,65.00
2018-05-26T20:25:22.576Z,65.30
2018-05-26T20:27:56.949Z,67.00
2018-05-26T20:30:24.564Z,66.90
2018-05-26T20:32:52.190Z,67.30
2018-05-26T20:35:19.841Z,68.60
2018-05-26T20:37:47.472Z,68.90
2018-05-26T20:40:15.264Z,69.30
2018-05-26T20:42:42.848Z,69.20
2018-05-26T20:45:10.423Z,69.90
2018-05-26T20:47:38.826Z,70.90
2018-05-26T20:50:06.521Z,70.90
2018-05-26T20:52:34.088Z,72.10
2018-05-26T20:55:01.704Z,72.40
2018-05-26T20:57:30.222Z,72.90
2018-05-26T20:59:57.828Z,72.80
2018-05-26T21:02:26.183Z,73.50
2018-05-26T21:04:55.290Z,73.60
2018-05-26T21:07:22.876Z,73.50
2018-05-26T21:09:50.430Z,73.70
2018-05-26T21:12:18.005Z,74.70
2018-05-26T21:14:45.568Z,75.00
2018-05-26T21:17:13.155Z,76.10
2018-05-26T21:19:40.797Z,77.20
2018-05-26T21:22:10.340Z,76.50
2018-05-26T21:24:37.930Z,76.60
2018-05-26T21:27:06.322Z,77.80
2018-05-26T21:29:33.892Z,77.90
2018-05-26T21:32:01.434Z,78.70
2018-05-26T21:34:29.070Z,78.50
2018-05-26T21:36:56.676Z,77.90
2018-05-26T21:39:24.276Z,78.80
2018-05-26T21:41:51.860Z,79.30
2018-05-26T21:44:27.098Z,79.10
2018-05-26T21:46:55.454Z,79.70
2018-05-26T21:49:23.022Z,79.70
2018-05-26T21:54:24.604Z,79.90
2018-05-26T21:56:52.246Z,80.00
2018-05-26T21:59:19.824Z,80.90
2018-05-26T22:01:47.438Z,80.40
2018-05-26T22:04:15.023Z,81.00
2018-05-26T22:06:42.616Z,83.30
2018-05-26T22:09:10.982Z,82.20
2018-05-26T22:11:38.598Z,82.10
2018-05-26T22:14:06.229Z,82.70
2018-05-26T22:16:34.610Z,83.10
2018-05-26T22:19:03.004Z,83.30
2018-05-26T22:21:30.614Z,83.30
2018-05-26T22:23:59.017Z,84.00
2018-05-26T22:26:27.378Z,84.20
2018-05-26T22:28:55.016Z,84.20
2018-05-26T22:31:22.626Z,84.30
2018-05-26T22:33:51.020Z,84.70
2018-05-26T22:36:18.632Z,84.60
2018-05-26T22:38:46.244Z,84.60
2018-05-26T22:41:13.808Z,85.30
2018-05-26T22:43:41.430Z,85.20
2018-05-26T22:46:09.826Z,85.80
2018-05-26T22:48:38.190Z,86.90
2018-05-26T22:51:06.568Z,87.20
2018-05-26T22:53:34.205Z,87.20
2018-05-26T22:56:01.842Z,87.20
2018-05-26T22:58:29.452Z,88.60
2018-05-26T23:00:57.828Z,87.50
2018-05-26T23:03:26.316Z,88.20
2018-05-26T23:05:54.675Z,88.00
2018-05-26T23:08:22.278Z,88.00
2018-05-26T23:10:49.882Z,88.20
2018-05-26T23:13:17.502Z,88.10
2018-05-26T23:15:45.070Z,88.30
2018-05-26T23:18:12.644Z,88.50
2018-05-26T23:20:40.255Z,89.10
2018-05-26T23:23:08.662Z,89.40
2018-05-26T23:25:36.216Z,89.30
2018-05-26T23:28:04.605Z,89.60
2018-05-26T23:30:32.211Z,89.60
2018-05-26T23:32:59.844Z,90.00
2018-05-26T23:35:27.477Z,90.00
2018-05-26T23:37:55.093Z,90.00
2018-05-26T23:40:22.666Z,90.00
2018-05-26T23:42:50.296Z,89.80
2018-05-26T23:45:17.879Z,89.90
2018-05-26T23:47:45.503Z,89.50
2018-05-26T23:50:13.119Z,88.60
2018-05-26T23:52:41.480Z,88.50
2018-05-26T23:55:09.062Z,88.50
2018-05-26T23:57:37.430Z,89.00
